Terminal Aerodrome Forecast
Issued by NWS Memphis, TN

Home | Current Version | Previous Version | Text Only | Print | Product List | Glossary On
Versions: 1 2 3 4 5 6 7 8 9 10 11 12 13 14 15
000
FTUS44 KMEG 221700
TAFMKL
TAF
KMKL 221732Z 2218/2318 25007KT P6SM SCT040 SCT250
     FM230100 20003KT P6SM SCT250
      TEMPO 2310/2313 5SM BR
     FM231400 24005KT P6SM SKC=

USA.gov is the U.S. government's official web portal to all federal, state and local government web resources and services.